Time;durP1;ratioP1;P1;durP2;ratioP2;P2;SDS_P1;SDS_P2;PMS_P1;PMS_P2;Temp;Humidity;BMP_temperature;BMP_pressure;BME280_temperature;BME280_humidity;BME280_pressure;Samples;Min_cycle;Max_cycle;Signal;HPM_P1;HPM_P2
2021/12/18 13:11:18;;;;;;;9.27;3.90;;;9.30;99.90;;;;;;5102670;27;20388;-67
2021/12/18 13:13:44;;;;;;;13.37;3.20;;;9.30;99.90;;;;;;5085567;28;20419;-66
2021/12/18 13:16:16;;;;;;;11.33;3.13;;;9.30;99.90;;;;;;5114539;28;20063;-67
2021/12/18 13:18:45;;;;;;;;;;;9.30;99.90;;;;;;5127595;28;20154;-67
2021/12/18 13:21:20;;;;;;;12.53;4.37;;;9.30;99.90;;;;;;5108428;28;19923;-68
2021/12/18 13:23:51;;;;;;;11.87;4.40;;;9.30;99.90;;;;;;5107815;28;20039;-65
2021/12/18 13:26:28;;;;;;;13.60;3.97;;;9.30;99.90;;;;;;5115459;28;20423;-65
2021/12/18 13:29:10;;;;;;;12.90;4.43;;;9.40;99.90;;;;;;5106081;28;20448;-65
2021/12/18 13:31:54;;;;;;;12.47;3.60;;;9.30;99.90;;;;;;5116320;28;20077;-67
2021/12/18 13:34:23;;;;;;;15.43;3.73;;;9.30;99.90;;;;;;5096794;28;20043;-67
2021/12/18 13:36:57;;;;;;;9.97;3.07;;;9.40;99.90;;;;;;5096129;28;20191;-66
2021/12/18 13:39:32;;;;;;;15.03;3.20;;;9.40;99.90;;;;;;5091531;28;20131;-66
2021/12/18 13:42:08;;;;;;;11.60;4.90;;;9.40;99.90;;;;;;5088325;28;20056;-66
2021/12/18 13:44:42;;;;;;;12.97;3.83;;;9.40;99.90;;;;;;5086818;28;20131;-66
2021/12/18 13:47:38;;;;;;;11.10;3.87;;;9.40;99.90;;;;;;5106011;28;20399;-66
2021/12/18 13:50:14;;;;;;;9.90;3.10;;;9.50;99.90;;;;;;5105789;28;20728;-66
2021/12/18 13:52:42;;;;;;;12.73;4.67;;;9.50;99.90;;;;;;5086799;28;20043;-66
2021/12/18 13:55:32;;;;;;;14.97;3.80;;;9.50;99.90;;;;;;5105907;28;20050;-65
2021/12/18 13:58:10;;;;;;;10.67;4.13;;;9.50;99.90;;;;;;5104714;28;20541;-66
2021/12/18 14:01:00;;;;;;;11.83;4.70;;;9.50;99.90;;;;;;5104903;28;20044;-66
2021/12/18 14:03:35;;;;;;;12.80;3.83;;;9.50;99.90;;;;;;5104071;28;20444;-65
2021/12/18 14:06:33;;;;;;;12.43;4.03;;;9.40;99.90;;;;;;5086728;28;20052;-66
2021/12/18 14:09:09;;;;;;;10.70;3.70;;;9.40;99.90;;;;;;5082087;28;20134;-65
2021/12/18 14:11:43;;;;;;;10.53;3.50;;;9.40;99.90;;;;;;5114442;28;20146;-66
2021/12/18 14:14:11;;;;;;;14.13;12.67;;;9.40;99.90;;;;;;5114131;28;20058;-67
2021/12/18 14:16:47;;;;;;;8.37;3.10;;;9.40;99.90;;;;;;5101262;28;20039;-67
2021/12/18 14:19:12;;;;;;;12.03;3.53;;;9.30;99.90;;;;;;5124556;28;20062;-67
2021/12/18 14:21:41;;;;;;;11.53;3.33;;;9.30;99.90;;;;;;5098782;28;20488;-66
2021/12/18 14:24:07;;;;;;;9.83;4.07;;;9.30;99.90;;;;;;5112015;28;20511;-65
2021/12/18 14:26:35;;;;;;;9.43;3.17;;;9.30;99.90;;;;;;5092603;28;20040;-66
2021/12/18 14:29:15;;;;;;;12.63;3.50;;;9.30;99.90;;;;;;5111786;28;20035;-66
2021/12/18 14:31:50;;;;;;;10.87;3.63;;;9.30;99.90;;;;;;5111589;28;20054;-66
2021/12/18 14:34:22;;;;;;;11.47;7.10;;;9.30;99.90;;;;;;5111170;28;20036;-66
2021/12/18 14:36:49;;;;;;;11.00;4.67;;;9.20;99.90;;;;;;5093507;28;20454;-65
2021/12/18 14:43:32;;;;;;;17.03;6.43;;;9.20;99.90;;;;;;5101880;27;20457;-71
2021/12/18 14:45:58;;;;;;;10.10;3.80;;;9.20;99.90;;;;;;5106495;28;20044;-68
2021/12/18 14:48:34;;;;;;;11.30;4.20;;;9.20;99.90;;;;;;5105640;28;20616;-68
2021/12/18 14:51:00;;;;;;;7.40;3.90;;;9.20;99.90;;;;;;5106619;28;20122;-71
2021/12/18 14:53:25;;;;;;;8.90;4.43;;;9.20;99.90;;;;;;5096646;28;20131;-68
2021/12/18 14:55:54;;;;;;;9.33;2.50;;;9.20;99.90;;;;;;5105005;28;20492;-73
2021/12/18 14:58:27;;;;;;;9.90;3.20;;;9.30;99.90;;;;;;5101191;28;20148;-69
2021/12/18 15:00:59;;;;;;;9.47;3.40;;;9.30;99.90;;;;;;5118200;27;20052;-69
2021/12/18 15:03:26;;;;;;;;;;;9.30;99.90;;;;;;5085983;28;20056;-69
2021/12/18 15:05:54;;;;;;;9.60;3.47;;;9.40;99.90;;;;;;5085446;28;20384;-69
2021/12/18 15:08:22;;;;;;;8.17;2.70;;;9.40;99.90;;;;;;5089535;28;20048;-72
2021/12/18 15:10:55;;;;;;;6.73;2.67;;;9.50;99.90;;;;;;5105766;28;20048;-73
2021/12/18 15:13:22;;;;;;;13.00;3.13;;;9.50;99.90;;;;;;5106022;28;20043;-70
2021/12/18 15:16:09;;;;;;;12.57;3.73;;;9.50;99.90;;;;;;5105462;28;20031;-70
2021/12/18 15:18:34;;;;;;;8.63;2.80;;;9.50;99.90;;;;;;5105853;28;20454;-69
2021/12/18 15:21:00;;;;;;;10.80;3.40;;;9.50;99.90;;;;;;5103918;28;20059;-72
2021/12/18 15:23:26;;;;;;;6.70;2.87;;;9.50;99.90;;;;;;5105217;28;20040;-72
2021/12/18 15:25:53;;;;;;;12.00;3.30;;;9.50;99.90;;;;;;5105061;28;20097;-69
2021/12/18 15:28:19;;;;;;;11.67;3.00;;;9.60;99.90;;;;;;5106152;28;20128;-70
2021/12/18 15:30:45;;;;;;;8.57;2.23;;;9.60;99.90;;;;;;5103713;28;20498;-70
2021/12/18 15:33:10;;;;;;;11.17;4.70;;;9.60;99.90;;;;;;5104824;28;20131;-69
2021/12/18 15:35:36;;;;;;;8.07;3.97;;;9.60;99.90;;;;;;5105677;28;20036;-71
2021/12/18 15:38:01;;;;;;;9.20;3.20;;;9.60;99.90;;;;;;5105073;28;20534;-70
2021/12/18 15:40:27;;;;;;;9.73;3.90;;;9.60;99.90;;;;;;5105369;28;20054;-70
2021/12/18 15:42:53;;;;;;;10.50;5.60;;;9.70;99.90;;;;;;5105263;28;20067;-71
2021/12/18 15:45:18;;;;;;;8.47;3.83;;;9.70;99.90;;;;;;5105183;28;20051;-71
2021/12/18 15:47:44;;;;;;;9.33;3.30;;;9.70;99.90;;;;;;5105700;28;20044;-73
2021/12/18 15:50:10;;;;;;;9.30;6.30;;;9.60;99.90;;;;;;5104999;28;20035;-72
2021/12/18 15:52:36;;;;;;;12.43;6.03;;;9.70;99.90;;;;;;5105451;28;20089;-71
2021/12/18 15:55:02;;;;;;;10.67;4.17;;;9.60;99.90;;;;;;5091587;28;20201;-73
2021/12/18 15:57:28;;;;;;;9.47;3.77;;;9.60;99.90;;;;;;5089930;28;20645;-74
2021/12/18 15:59:53;;;;;;;9.23;4.03;;;9.60;99.90;;;;;;5090447;28;20164;-71
2021/12/18 16:02:19;;;;;;;8.90;4.17;;;9.60;99.90;;;;;;5091986;28;20036;-70
2021/12/18 16:04:45;;;;;;;8.73;4.30;;;9.60;99.90;;;;;;5090747;28;20047;-71
2021/12/18 16:07:10;;;;;;;14.13;4.37;;;9.60;99.90;;;;;;5090706;28;20130;-71
2021/12/18 16:09:36;;;;;;;9.93;4.87;;;9.60;99.90;;;;;;5091400;28;20040;-71
2021/12/18 16:12:03;;;;;;;8.27;4.10;;;9.60;99.90;;;;;;5090882;28;20134;-72
2021/12/18 16:14:31;;;;;;;7.57;4.27;;;9.60;99.90;;;;;;5091212;28;20036;-71
2021/12/18 16:16:58;;;;;;;14.47;5.43;;;9.60;99.90;;;;;;5090651;28;20048;-75
2021/12/18 16:19:24;;;;;;;9.90;5.73;;;9.70;99.90;;;;;;5090395;28;20121;-72
2021/12/18 16:21:49;;;;;;;15.23;7.13;;;9.60;99.90;;;;;;5090365;28;20040;-70
2021/12/18 16:24:15;;;;;;;11.60;5.90;;;9.60;99.90;;;;;;5091431;28;20059;-70
2021/12/18 16:26:41;;;;;;;8.30;4.90;;;9.60;99.90;;;;;;5090254;28;20043;-72
2021/12/18 16:29:06;;;;;;;10.07;5.57;;;9.50;99.90;;;;;;5091381;28;20492;-72
2021/12/18 16:31:32;;;;;;;14.40;4.90;;;9.50;99.90;;;;;;5089501;28;20090;-71
2021/12/18 16:33:59;;;;;;;12.23;9.30;;;9.50;99.90;;;;;;5090581;28;20453;-70
2021/12/18 16:36:27;;;;;;;10.27;6.10;;;9.50;99.90;;;;;;5090843;28;20097;-69
2021/12/18 16:38:53;;;;;;;11.70;5.60;;;9.50;99.90;;;;;;5089468;28;20515;-69
2021/12/18 16:41:20;;;;;;;15.93;11.33;;;9.50;99.90;;;;;;5090135;28;20033;-69
2021/12/18 16:43:48;;;;;;;10.80;4.67;;;9.50;99.90;;;;;;5090624;28;20048;-71
2021/12/18 16:46:15;;;;;;;7.47;5.47;;;9.50;99.90;;;;;;5091020;28;20058;-68
2021/12/18 16:48:41;;;;;;;11.00;4.37;;;9.60;99.90;;;;;;5089684;28;20082;-69
2021/12/18 16:51:08;;;;;;;10.03;4.57;;;9.50;99.90;;;;;;5090819;28;20139;-69
2021/12/18 16:53:36;;;;;;;8.27;4.30;;;9.50;99.90;;;;;;5089769;28;20092;-70
2021/12/18 16:56:03;;;;;;;7.93;4.53;;;9.50;99.90;;;;;;5089943;28;20040;-78
2021/12/18 16:58:28;;;;;;;5.10;3.77;;;9.40;99.90;;;;;;5091055;28;20373;-77
2021/12/18 17:00:56;;;;;;;6.67;5.77;;;9.40;99.90;;;;;;5089851;28;20071;-77
2021/12/18 17:03:23;;;;;;;7.03;4.63;;;9.40;99.90;;;;;;5090653;28;20071;-77
2021/12/18 17:05:48;;;;;;;9.37;5.90;;;9.30;99.90;;;;;;5089597;28;20040;-78
2021/12/18 17:08:15;;;;;;;6.33;3.70;;;9.20;99.90;;;;;;5088476;28;20063;-78
2021/12/18 17:10:42;;;;;;;6.60;4.27;;;9.20;99.90;;;;;;5089869;28;20595;-77
2021/12/18 17:13:09;;;;;;;8.07;5.20;;;9.20;99.90;;;;;;5090620;28;20066;-77
2021/12/18 17:15:35;;;;;;;7.83;4.83;;;9.20;99.90;;;;;;5089569;28;20058;-80
2021/12/18 17:18:01;;;;;;;9.53;5.77;;;9.20;99.90;;;;;;5089408;28;20138;-78
2021/12/18 17:20:27;;;;;;;7.67;5.37;;;9.20;99.90;;;;;;5088906;28;20130;-79
2021/12/18 17:22:53;;;;;;;8.80;5.40;;;9.20;99.90;;;;;;5089583;28;20163;-78
2021/12/18 17:25:20;;;;;;;9.80;8.10;;;9.20;99.90;;;;;;5088871;28;20486;-77
2021/12/18 17:27:47;;;;;;;13.77;7.73;;;9.20;99.90;;;;;;5089918;28;20047;-79
2021/12/18 17:30:16;;;;;;;12.43;8.57;;;9.20;99.90;;;;;;5089496;28;20067;-78
2021/12/18 17:32:42;;;;;;;11.07;6.53;;;9.20;99.90;;;;;;5090080;28;20044;-76
2021/12/18 17:35:09;;;;;;;10.60;6.90;;;9.20;99.90;;;;;;5089079;28;20047;-76
2021/12/18 17:37:35;;;;;;;9.73;7.30;;;9.10;99.90;;;;;;5088101;28;20411;-77
2021/12/18 17:40:07;;;;;;;8.80;6.27;;;9.10;99.90;;;;;;5089133;28;20044;-76
2021/12/18 17:42:33;;;;;;;9.68;6.97;;;9.10;99.90;;;;;;5088161;28;20105;-75
2021/12/18 17:44:59;;;;;;;12.10;10.07;;;9.00;99.90;;;;;;5088037;28;20101;-76
2021/12/18 20:05:07;;;;;;;30.27;20.77;;;7.60;99.90;;;;;;5085337;27;20480;-75
2021/12/18 20:07:34;;;;;;;16.60;12.47;;;7.60;99.90;;;;;;5086587;28;20129;-78
2021/12/18 20:09:59;;;;;;;13.57;8.57;;;7.60;99.90;;;;;;5086744;28;20040;-78
2021/12/18 20:12:25;;;;;;;11.83;8.73;;;7.60;99.90;;;;;;5085736;28;20044;-79
2021/12/18 20:14:50;;;;;;;12.03;8.10;;;7.60;99.90;;;;;;5086672;28;20482;-79
2021/12/18 20:17:16;;;;;;;11.20;7.33;;;7.60;99.90;;;;;;5086806;28;20451;-77
2021/12/18 20:22:02;;;;;;;10.07;6.53;;;7.60;99.90;;;;;;5107280;27;20347;-79
2021/12/18 20:24:28;;;;;;;10.77;7.53;;;7.60;99.90;;;;;;5069387;28;20127;-76
2021/12/18 20:26:57;;;;;;;10.03;7.73;;;7.70;99.90;;;;;;5083071;28;20510;-76
2021/12/18 20:29:23;;;;;;;11.13;6.30;;;7.70;99.90;;;;;;5084054;28;20396;-76
2021/12/18 20:31:49;;;;;;;9.70;6.10;;;7.70;99.90;;;;;;5082948;28;20126;-79
2021/12/18 20:34:17;;;;;;;11.83;7.07;;;7.70;99.90;;;;;;5068251;28;20048;-77
2021/12/18 20:36:43;;;;;;;10.93;6.90;;;7.80;99.90;;;;;;5071335;28;20361;-77
2021/12/18 20:39:10;;;;;;;13.30;7.47;;;7.80;99.90;;;;;;5088832;28;20162;-77
2021/12/18 20:41:38;;;;;;;10.20;7.57;;;7.90;99.90;;;;;;5071140;28;20499;-78
2021/12/18 20:44:06;;;;;;;9.77;7.47;;;7.80;99.90;;;;;;5071724;28;20076;-78
2021/12/18 20:46:32;;;;;;;11.90;7.63;;;7.80;99.90;;;;;;5088319;28;20504;-77
2021/12/18 20:48:58;;;;;;;13.57;7.23;;;7.90;99.90;;;;;;5089698;28;20477;-76
2021/12/18 20:51:24;;;;;;;10.03;7.70;;;7.90;99.90;;;;;;5071190;28;20465;-78
2021/12/18 20:53:49;;;;;;;11.10;7.43;;;7.90;99.90;;;;;;5070598;28;20104;-78
2021/12/18 20:56:15;;;;;;;11.03;7.53;;;7.90;99.90;;;;;;5070393;28;20048;-76
